In Rescue
 
Open Full Screen Window  High Contrast Mode
Wind Gusting 00 knots
06
January 22, 2020 4:39 PM CST
Present Weather: Mist
Weather Information
Wind Direction
  160 °
Wind Speed
  06 kt (7 mph)
Wind Gust
  00 kt (0 mph)
Altimeter
29.84 in
Visibility
2 SM
Temperature
02° C
36° F
Dewpoint
01° C
34° F
Humidity
93%
1hr Rain Fall
00.01 in.
24hr Rain Fall
00.16 in.
Sky Condition
Overcast @ 600 ft
IFR

METAR KPNM 222239Z AUTO 16006KT 2SM BR OVC006 02/01 A2984 RMK AO2 P0001 P0001

FAA Disclaimer: The data displayed is for advisory purposes only and is not to be used for flight planning or operations.